Time;durP1;ratioP1;P1;durP2;ratioP2;P2;SDS_P1;SDS_P2;PMS_P1;PMS_P2;Temp;Humidity;BMP_temperature;BMP_pressure;BME280_temperature;BME280_humidity;BME280_pressure;Samples;Min_cycle;Max_cycle;Signal;HPM_P1;HPM_P2
2022/03/23 00:00:26;;;;;;;21.50;12.15;;;3.50;73.30;;;;;;5157644;28;20063;-75
2022/03/23 00:02:59;;;;;;;19.95;11.60;;;3.40;73.70;;;;;;5140736;28;20057;-75
2022/03/23 00:05:32;;;;;;;20.17;11.73;;;3.20;74.20;;;;;;5172692;28;20054;-73
2022/03/23 00:08:05;;;;;;;24.45;12.85;;;3.20;74.40;;;;;;5161162;28;20572;-74
2022/03/23 00:10:37;;;;;;;24.80;12.70;;;3.10;74.70;;;;;;5157137;28;20035;-74
2022/03/23 00:13:10;;;;;;;20.63;10.68;;;3.20;74.90;;;;;;5158252;28;20042;-73
2022/03/23 00:15:43;;;;;;;23.98;11.75;;;3.10;75.00;;;;;;5156461;28;20046;-74
2022/03/23 00:18:15;;;;;;;23.17;12.45;;;3.00;74.90;;;;;;5158704;28;20042;-74
2022/03/23 00:20:48;;;;;;;24.00;11.75;;;3.00;75.00;;;;;;5153330;28;20128;-74
2022/03/23 00:23:20;;;;;;;23.85;12.45;;;3.00;75.20;;;;;;5141662;28;20061;-74
2022/03/23 00:25:53;;;;;;;20.77;11.75;;;3.00;75.30;;;;;;5155659;28;20608;-73
2022/03/23 00:28:26;;;;;;;20.60;11.50;;;3.00;75.30;;;;;;5157995;28;20049;-73
2022/03/23 00:30:59;;;;;;;24.33;13.02;;;3.00;75.50;;;;;;5173140;28;20046;-73
2022/03/23 00:33:35;;;;;;;24.88;12.77;;;2.90;75.60;;;;;;5176165;28;20066;-74
2022/03/23 00:36:11;;;;;;;21.48;12.18;;;2.90;76.00;;;;;;5174553;28;20086;-74
2022/03/23 00:38:44;;;;;;;26.52;12.20;;;2.80;76.10;;;;;;5171551;28;20393;-74
2022/03/23 00:41:17;;;;;;;24.00;12.05;;;2.70;76.40;;;;;;5145098;28;20398;-73
2022/03/23 00:43:49;;;;;;;19.13;12.10;;;2.70;76.50;;;;;;5158554;28;20053;-74
2022/03/23 00:46:24;;;;;;;22.05;12.57;;;2.70;76.70;;;;;;5155902;28;20056;-73
2022/03/23 00:49:00;;;;;;;20.52;11.55;;;2.70;76.70;;;;;;5168852;28;20053;-75
2022/03/23 00:51:33;;;;;;;21.08;11.80;;;2.60;76.70;;;;;;5156706;28;20050;-74
2022/03/23 00:54:05;;;;;;;20.15;12.35;;;2.70;76.70;;;;;;5173977;28;20517;-74
2022/03/23 00:56:38;;;;;;;20.88;11.60;;;2.60;76.60;;;;;;5158187;28;20054;-74
2022/03/23 00:59:11;;;;;;;21.92;12.57;;;2.60;76.70;;;;;;5157397;28;20059;-74
2022/03/23 01:01:45;;;;;;;19.85;11.30;;;2.50;76.70;;;;;;5159235;28;20053;-75
2022/03/23 01:04:18;;;;;;;19.50;11.75;;;2.60;76.70;;;;;;5160957;28;20409;-73
2022/03/23 01:06:54;;;;;;;22.60;12.05;;;2.50;76.80;;;;;;5162708;28;20054;-74
2022/03/23 01:09:27;;;;;;;36.60;17.08;;;2.50;76.90;;;;;;5163994;28;20930;-73
2022/03/23 01:11:59;;;;;;;35.80;16.25;;;2.50;77.40;;;;;;5161213;28;20041;-73
2022/03/23 01:14:31;;;;;;;32.17;15.15;;;2.60;77.10;;;;;;5202493;22;20059;-74
2022/03/23 01:17:07;;;;;;;26.83;13.13;;;2.60;77.10;;;;;;5195252;28;20086;-74
2022/03/23 01:19:40;;;;;;;25.02;12.38;;;2.60;77.10;;;;;;5165034;28;20045;-74
2022/03/23 01:22:12;;;;;;;24.27;12.48;;;2.60;77.10;;;;;;5184947;28;20049;-75
2022/03/23 01:24:46;;;;;;;21.63;11.80;;;2.60;77.00;;;;;;5157835;28;20037;-76
2022/03/23 01:27:21;;;;;;;21.20;12.90;;;2.60;77.10;;;;;;5165568;28;20512;-75
2022/03/23 01:29:53;;;;;;;23.33;12.05;;;2.50;77.10;;;;;;5166215;28;20506;-74
2022/03/23 01:32:26;;;;;;;23.23;13.45;;;2.50;77.20;;;;;;5162586;28;20041;-74
2022/03/23 01:34:58;;;;;;;21.08;12.68;;;2.40;77.50;;;;;;5144813;28;20045;-76
2022/03/23 01:37:31;;;;;;;23.98;12.45;;;2.30;77.90;;;;;;5179604;28;20101;-73
2022/03/23 01:40:07;;;;;;;22.00;12.68;;;2.30;78.10;;;;;;5164205;28;20065;-76
2022/03/23 01:42:41;;;;;;;19.05;11.93;;;2.30;77.70;;;;;;5161530;28;20058;-74
2022/03/23 01:45:14;;;;;;;22.35;12.93;;;2.30;77.30;;;;;;5170682;28;20045;-75
2022/03/23 01:47:47;;;;;;;24.02;12.70;;;2.30;77.50;;;;;;5172021;28;20060;-75
2022/03/23 01:50:19;;;;;;;22.23;11.77;;;2.20;77.80;;;;;;5176522;28;20046;-75
2022/03/23 01:52:52;;;;;;;25.13;13.82;;;2.20;77.90;;;;;;5165635;28;20064;-75
2022/03/23 01:55:25;;;;;;;26.85;13.15;;;2.10;78.10;;;;;;5161312;28;20421;-74
2022/03/23 01:57:58;;;;;;;24.98;13.05;;;2.00;78.10;;;;;;5188571;28;20114;-74
2022/03/23 02:00:30;;;;;;;26.02;12.63;;;2.00;78.50;;;;;;5172899;28;20056;-76
2022/03/23 02:03:04;;;;;;;20.80;11.97;;;1.90;78.50;;;;;;5171960;28;20678;-76
2022/03/23 02:05:38;;;;;;;23.67;11.90;;;1.90;78.30;;;;;;5142216;28;20248;-75
2022/03/23 02:08:12;;;;;;;20.45;12.57;;;1.90;78.50;;;;;;5157589;28;20057;-74
2022/03/23 02:10:47;;;;;;;20.75;12.25;;;1.90;78.70;;;;;;5155735;28;20072;-75
2022/03/23 02:13:21;;;;;;;18.73;10.95;;;1.80;78.90;;;;;;5173953;28;20497;-75
2022/03/23 02:15:55;;;;;;;25.08;13.18;;;1.80;79.00;;;;;;5166693;28;20669;-75
2022/03/23 02:18:28;;;;;;;22.20;13.10;;;1.80;79.30;;;;;;5156919;28;20046;-75
2022/03/23 02:21:01;;;;;;;23.95;11.55;;;1.70;79.50;;;;;;5151082;28;26544;-75
2022/03/23 02:23:37;;;;;;;21.70;12.65;;;1.70;79.80;;;;;;5156209;28;20701;-76
2022/03/23 02:26:11;;;;;;;23.65;12.48;;;1.70;79.90;;;;;;5176256;28;20054;-75
2022/03/23 02:28:44;;;;;;;;;;;1.60;79.80;;;;;;5174115;28;20037;-76
2022/03/23 02:31:17;;;;;;;29.75;13.15;;;1.60;82.10;;;;;;5172569;28;20452;-75
2022/03/23 02:33:49;;;;;;;21.80;12.35;;;1.70;79.80;;;;;;5166615;28;20041;-74
2022/03/23 02:36:21;;;;;;;22.15;12.30;;;1.80;79.60;;;;;;5169502;28;20033;-75
2022/03/23 02:38:54;;;;;;;23.70;13.38;;;1.70;79.40;;;;;;5164503;28;20046;-73
2022/03/23 02:41:27;;;;;;;20.70;11.70;;;1.80;79.40;;;;;;5182048;28;20719;-75
2022/03/23 02:44:00;;;;;;;20.95;11.10;;;1.80;79.40;;;;;;5165170;28;20077;-76
2022/03/23 02:46:35;;;;;;;19.48;11.82;;;1.70;79.10;;;;;;5167140;28;20590;-73
2022/03/23 02:49:09;;;;;;;25.23;12.82;;;1.70;79.30;;;;;;5173507;28;20051;-74
2022/03/23 02:51:42;;;;;;;23.80;12.43;;;1.60;79.80;;;;;;5165877;28;20074;-75
2022/03/23 03:03:49;;;;;;;22.30;12.50;;;1.30;81.80;;;;;;5171453;28;20053;-75
2022/03/23 03:06:22;;;;;;;26.88;13.88;;;1.30;80.80;;;;;;5167984;28;20510;-74
2022/03/23 03:08:54;;;;;;;23.42;11.95;;;1.30;81.20;;;;;;5177736;28;20080;-76
2022/03/23 03:11:26;;;;;;;23.65;12.80;;;1.30;81.00;;;;;;5181474;28;20443;-75
2022/03/23 03:13:59;;;;;;;23.70;11.65;;;1.30;81.60;;;;;;5177359;28;20053;-74
2022/03/23 03:16:31;;;;;;;21.88;12.15;;;1.30;81.00;;;;;;5166290;28;20704;-75
2022/03/23 03:19:10;;;;;;;20.67;12.30;;;1.30;81.10;;;;;;5155431;28;20482;-75
2022/03/23 03:21:43;;;;;;;19.85;12.43;;;1.30;81.30;;;;;;5169706;28;20053;-73
2022/03/23 03:24:15;;;;;;;24.00;12.65;;;1.20;81.40;;;;;;5163909;28;20056;-75
2022/03/23 03:26:48;;;;;;;21.85;12.02;;;1.10;81.70;;;;;;5168249;28;20057;-75
2022/03/23 03:29:23;;;;;;;21.38;12.82;;;1.10;81.90;;;;;;5177054;28;20049;-74
2022/03/23 03:31:55;;;;;;;23.88;12.80;;;1.10;81.80;;;;;;5172633;28;20571;-71
2022/03/23 03:34:28;;;;;;;23.80;12.57;;;1.20;81.80;;;;;;5168709;28;20051;-74
2022/03/23 03:37:00;;;;;;;23.42;12.57;;;1.20;81.70;;;;;;5171791;28;20057;-75
2022/03/23 03:39:32;;;;;;;25.70;12.60;;;1.10;81.70;;;;;;5162125;28;20615;-75
2022/03/23 03:42:05;;;;;;;25.95;11.98;;;1.10;81.80;;;;;;5175357;28;20129;-73
2022/03/23 03:44:37;;;;;;;21.83;12.55;;;1.00;82.00;;;;;;5175020;28;20050;-74
2022/03/23 03:47:10;;;;;;;22.27;11.45;;;1.10;82.10;;;;;;5176298;28;20050;-73
2022/03/23 03:49:43;;;;;;;27.13;12.52;;;1.10;82.80;;;;;;5169557;28;20046;-75
2022/03/23 03:52:18;;;;;;;20.40;11.30;;;1.20;82.20;;;;;;5168459;28;20102;-75
2022/03/23 03:54:50;;;;;;;23.50;10.75;;;1.10;82.40;;;;;;5180108;28;20064;-75
2022/03/23 03:57:23;;;;;;;21.23;11.10;;;1.10;82.10;;;;;;5168464;28;20669;-75
2022/03/23 03:59:55;;;;;;;23.98;12.43;;;1.10;82.00;;;;;;5169900;28;20046;-75
2022/03/23 04:02:28;;;;;;;22.73;11.98;;;1.10;82.10;;;;;;5187932;28;20516;-73
2022/03/23 04:05:00;;;;;;;20.60;12.00;;;1.20;81.80;;;;;;5181168;28;20061;-75
2022/03/23 04:07:33;;;;;;;22.52;11.55;;;1.20;81.70;;;;;;5169053;28;20045;-74
2022/03/23 04:10:06;;;;;;;19.55;11.18;;;1.20;81.90;;;;;;5172092;28;20410;-74
2022/03/23 04:12:39;;;;;;;25.67;11.50;;;1.20;81.80;;;;;;5174186;28;20960;-75
2022/03/23 04:15:11;;;;;;;20.70;11.55;;;1.20;81.70;;;;;;5164268;28;20417;-75
2022/03/23 04:17:44;;;;;;;20.83;11.80;;;1.20;81.70;;;;;;5186034;28;20038;-75
2022/03/23 04:20:16;;;;;;;26.83;12.35;;;1.10;82.10;;;;;;5172163;28;20056;-75
2022/03/23 04:22:49;;;;;;;21.05;11.45;;;1.00;82.30;;;;;;5167806;28;20448;-76
2022/03/23 04:25:22;;;;;;;20.30;11.00;;;1.00;82.50;;;;;;5166681;28;20686;-74
2022/03/23 04:27:56;;;;;;;19.60;12.05;;;1.00;82.50;;;;;;5179334;28;20406;-75
2022/03/23 04:30:30;;;;;;;26.85;12.43;;;1.00;82.30;;;;;;5172700;28;20049;-75
2022/03/23 04:33:03;;;;;;;24.42;12.43;;;1.00;82.30;;;;;;5165474;28;20057;-75
2022/03/23 04:35:35;;;;;;;20.55;11.57;;;1.00;82.50;;;;;;5168063;28;20050;-74
2022/03/23 04:38:08;;;;;;;20.17;11.70;;;1.10;82.70;;;;;;5168476;28;20053;-75
2022/03/23 04:40:41;;;;;;;21.37;10.77;;;1.00;82.40;;;;;;5167810;28;20053;-73
2022/03/23 04:43:14;;;;;;;22.37;12.33;;;1.00;82.70;;;;;;5170426;28;20312;-73
2022/03/23 04:45:47;;;;;;;19.35;11.48;;;0.90;82.80;;;;;;5173098;28;20054;-75
2022/03/23 04:48:19;;;;;;;20.50;11.43;;;0.90;82.90;;;;;;5167717;28;20703;-75
2022/03/23 04:50:52;;;;;;;23.05;11.45;;;1.00;82.80;;;;;;5166995;28;20882;-74
2022/03/23 04:53:25;;;;;;;19.60;10.88;;;1.00;82.50;;;;;;5170857;28;20528;-74
2022/03/23 04:55:58;;;;;;;23.45;12.15;;;1.00;82.60;;;;;;5166518;28;20038;-74
2022/03/23 04:58:30;;;;;;;19.02;10.80;;;0.90;82.80;;;;;;5155212;28;20046;-74
2022/03/23 05:01:03;;;;;;;22.10;11.13;;;0.90;82.90;;;;;;5161408;28;20049;-74
2022/03/23 05:03:35;;;;;;;19.67;10.50;;;0.90;83.10;;;;;;5157280;28;20057;-74
2022/03/23 05:06:08;;;;;;;24.42;12.23;;;0.80;83.10;;;;;;5155005;28;20053;-74
2022/03/23 05:08:40;;;;;;;20.90;11.52;;;0.80;82.90;;;;;;5157706;28;20311;-73
2022/03/23 05:11:18;;;;;;;19.33;11.85;;;0.80;82.90;;;;;;5121809;28;20053;-73
2022/03/23 05:13:50;;;;;;;21.35;11.20;;;0.80;82.60;;;;;;5152082;28;20057;-76
2022/03/23 05:16:22;;;;;;;18.55;10.98;;;0.80;82.60;;;;;;5150574;28;20050;-75
2022/03/23 05:18:55;;;;;;;19.80;11.13;;;0.70;82.90;;;;;;5167366;28;20049;-75
2022/03/23 05:21:27;;;;;;;21.38;11.65;;;0.70;83.00;;;;;;5157124;28;20482;-73
2022/03/23 05:24:00;;;;;;;22.90;10.50;;;0.60;83.20;;;;;;5147775;28;20048;-74
2022/03/23 05:26:32;;;;;;;22.85;12.57;;;0.60;83.30;;;;;;5141849;28;20049;-74
2022/03/23 05:29:05;;;;;;;24.83;11.98;;;0.60;83.80;;;;;;5152782;28;20437;-75
2022/03/23 05:31:38;;;;;;;26.73;13.45;;;0.60;84.10;;;;;;5160495;28;20061;-75
2022/03/23 05:34:10;;;;;;;25.10;13.70;;;0.50;84.30;;;;;;5136900;28;20042;-74
2022/03/23 05:36:43;;;;;;;33.58;16.58;;;0.50;84.50;;;;;;5152439;28;21518;-74
2022/03/23 05:39:15;;;;;;;40.53;18.33;;;0.50;85.00;;;;;;5156697;28;20066;-74
2022/03/23 05:41:48;;;;;;;31.90;14.10;;;0.50;84.80;;;;;;5151624;28;20049;-75
2022/03/23 05:44:20;;;;;;;23.13;12.35;;;0.60;84.70;;;;;;5148155;28;20050;-77
2022/03/23 05:46:52;;;;;;;37.45;13.23;;;0.70;84.60;;;;;;5140463;28;20053;-77
2022/03/23 05:49:25;;;;;;;25.33;12.27;;;0.70;84.60;;;;;;5154465;28;20489;-75
2022/03/23 05:51:58;;;;;;;28.60;12.73;;;0.80;84.60;;;;;;5162370;28;20431;-74
2022/03/23 05:54:30;;;;;;;23.98;13.50;;;0.80;84.30;;;;;;5171139;28;21272;-76
2022/03/23 05:57:03;;;;;;;26.10;13.30;;;0.90;84.00;;;;;;5150986;28;20046;-75
2022/03/23 05:59:35;;;;;;;23.75;12.68;;;1.00;83.70;;;;;;5154311;28;20313;-76
2022/03/23 06:02:08;;;;;;;24.98;13.30;;;1.00;83.70;;;;;;5149273;28;20072;-76
2022/03/23 06:04:40;;;;;;;25.90;13.20;;;1.10;83.90;;;;;;5149641;28;20053;-76
2022/03/23 06:07:13;;;;;;;24.52;12.50;;;1.10;84.00;;;;;;5140011;28;20046;-75
2022/03/23 06:09:46;;;;;;;26.10;12.63;;;1.20;83.90;;;;;;5128747;28;20057;-76
2022/03/23 06:12:19;;;;;;;28.35;13.32;;;1.30;83.50;;;;;;4802597;28;10000098;-75
2022/03/23 06:14:51;;;;;;;29.50;14.60;;;1.30;83.50;;;;;;5152468;28;20049;-76
2022/03/23 06:17:24;;;;;;;33.70;15.30;;;1.40;83.30;;;;;;5150691;28;20053;-75
2022/03/23 06:19:56;;;;;;;32.42;15.45;;;1.60;82.90;;;;;;5152213;28;20434;-75
2022/03/23 06:22:29;;;;;;;30.55;13.85;;;1.70;82.50;;;;;;5157921;28;20050;-73
2022/03/23 06:25:02;;;;;;;32.80;15.40;;;1.90;82.10;;;;;;5172752;28;20069;-75
2022/03/23 06:27:35;;;;;;;27.92;14.57;;;2.00;82.00;;;;;;5151142;28;20053;-74
2022/03/23 06:30:08;;;;;;;29.52;15.63;;;2.20;81.60;;;;;;5154827;28;20054;-74
2022/03/23 06:32:41;;;;;;;34.75;16.55;;;2.30;81.30;;;;;;5168766;28;20045;-75
2022/03/23 06:35:14;;;;;;;33.95;15.15;;;2.50;81.20;;;;;;5172939;28;20084;-76
2022/03/23 06:37:46;;;;;;;35.22;16.40;;;2.60;80.90;;;;;;5174176;28;20421;-75
2022/03/23 06:40:20;;;;;;;29.13;14.63;;;2.80;80.70;;;;;;5170879;28;20061;-74
2022/03/23 06:42:55;;;;;;;30.48;14.52;;;2.90;80.60;;;;;;5169974;28;20049;-75
2022/03/23 06:45:29;;;;;;;24.38;13.68;;;3.00;80.50;;;;;;5164500;28;20046;-74
2022/03/23 06:48:02;;;;;;;28.85;13.30;;;3.10;80.80;;;;;;5182527;28;20381;-74
2022/03/23 06:50:35;;;;;;;23.08;13.25;;;3.30;79.80;;;;;;5178905;28;20054;-75
2022/03/23 06:53:08;;;;;;;21.60;12.70;;;3.50;79.50;;;;;;5161013;28;20045;-73
2022/03/23 06:55:40;;;;;;;20.50;10.88;;;3.60;78.10;;;;;;5167349;28;20553;-75
2022/03/23 06:58:13;;;;;;;26.50;10.52;;;3.90;76.80;;;;;;5157567;28;20050;-76
2022/03/23 07:00:45;;;;;;;20.08;10.77;;;4.20;75.20;;;;;;5184404;28;20054;-76
2022/03/23 07:03:18;;;;;;;19.17;10.10;;;4.50;74.60;;;;;;5154477;28;20050;-74
2022/03/23 07:05:50;;;;;;;22.13;9.80;;;4.80;73.50;;;;;;5167086;28;20068;-74
2022/03/23 07:11:14;;;;;;;39.67;11.07;;;5.30;71.60;;;;;;5168014;28;20049;-74
2022/03/23 07:13:47;;;;;;;36.90;9.63;;;5.70;69.70;;;;;;5162649;28;20942;-73
2022/03/23 07:16:19;;;;;;;20.85;9.38;;;5.90;69.20;;;;;;5170792;28;20050;-74
2022/03/23 07:18:51;;;;;;;34.05;9.70;;;6.00;68.90;;;;;;5162494;28;20057;-73
2022/03/23 07:21:24;;;;;;;21.02;9.70;;;6.30;68.50;;;;;;5159613;28;20723;-75
2022/03/23 07:23:57;;;;;;;21.60;9.75;;;6.50;67.70;;;;;;5148003;28;20061;-75
2022/03/23 07:26:29;;;;;;;17.27;8.53;;;6.70;66.80;;;;;;5163601;28;20072;-75
2022/03/23 07:29:03;;;;;;;35.08;9.18;;;6.80;66.50;;;;;;5155922;28;20041;-75
2022/03/23 07:31:36;;;;;;;32.08;9.70;;;7.00;65.20;;;;;;5168492;28;20061;-74
2022/03/23 07:34:13;;;;;;;20.20;9.70;;;7.20;64.40;;;;;;5162592;28;20042;-74
2022/03/23 07:36:47;;;;;;;16.23;8.55;;;7.40;64.30;;;;;;5155615;28;20551;-74
2022/03/23 07:39:21;;;;;;;15.43;8.82;;;7.50;64.00;;;;;;5160776;28;20042;-74
2022/03/23 07:41:54;;;;;;;15.63;8.48;;;7.60;63.20;;;;;;5162786;28;22298;-74
2022/03/23 07:44:26;;;;;;;19.75;9.27;;;7.80;62.60;;;;;;5170754;28;20460;-75
2022/03/23 07:47:00;;;;;;;15.82;8.32;;;8.00;62.20;;;;;;5158391;28;20480;-75
2022/03/23 07:49:32;;;;;;;15.43;8.63;;;8.30;61.40;;;;;;5174236;28;20049;-72
2022/03/23 07:52:05;;;;;;;20.77;7.85;;;8.50;61.50;;;;;;5156916;28;20046;-74
2022/03/23 07:54:37;;;;;;;19.48;9.00;;;8.60;59.60;;;;;;5159521;28;20525;-75
2022/03/23 07:57:09;;;;;;;20.08;9.15;;;8.80;60.10;;;;;;5160284;28;20048;-74
2022/03/23 07:59:42;;;;;;;18.35;10.10;;;9.00;59.80;;;;;;5164246;28;20054;-74
2022/03/23 08:02:14;;;;;;;16.38;9.15;;;9.20;59.70;;;;;;5163166;28;20054;-75
2022/03/23 08:04:47;;;;;;;19.30;9.20;;;9.30;59.70;;;;;;5164507;28;20046;-73
2022/03/23 08:07:20;;;;;;;18.73;10.32;;;9.40;59.20;;;;;;5158883;28;20057;-75
2022/03/23 08:09:52;;;;;;;19.73;10.07;;;9.50;57.90;;;;;;5150409;28;20061;-73
2022/03/23 08:12:25;;;;;;;19.15;9.43;;;9.60;58.40;;;;;;5172516;28;20052;-73
2022/03/23 08:14:57;;;;;;;17.88;10.95;;;9.80;57.50;;;;;;5158090;28;20053;-74
2022/03/23 08:17:30;;;;;;;24.30;10.32;;;9.90;57.80;;;;;;5143805;28;20050;-75
2022/03/23 08:22:57;;;;;;;20.42;11.02;;;10.20;57.00;;;;;;5163996;28;20041;-74
2022/03/23 08:25:30;;;;;;;18.42;10.70;;;10.40;56.40;;;;;;5168231;28;20046;-75
2022/03/23 08:28:09;;;;;;;19.40;11.32;;;10.60;56.30;;;;;;5171357;28;20054;-74
2022/03/23 08:30:43;;;;;;;23.85;11.77;;;10.70;55.40;;;;;;5160037;28;20065;-74
2022/03/23 08:33:16;;;;;;;30.77;12.25;;;10.80;54.30;;;;;;5180359;28;20531;-75
2022/03/23 08:35:48;;;;;;;29.08;11.98;;;10.90;54.10;;;;;;5175883;28;20574;-74
2022/03/23 08:38:21;;;;;;;20.98;11.23;;;11.00;54.30;;;;;;5166314;28;20100;-74
2022/03/23 08:40:53;;;;;;;22.60;12.15;;;11.10;53.60;;;;;;5159570;28;20040;-73
2022/03/23 08:43:26;;;;;;;22.93;12.47;;;11.20;52.90;;;;;;5142069;28;20045;-73
2022/03/23 08:46:00;;;;;;;22.77;12.40;;;11.30;52.50;;;;;;5159030;28;20108;-73
2022/03/23 08:48:32;;;;;;;17.67;12.00;;;11.30;51.80;;;;;;5162929;28;20037;-74
2022/03/23 08:51:05;;;;;;;18.73;11.45;;;11.30;51.70;;;;;;4478517;28;10000201;-74
2022/03/23 08:53:42;;;;;;;20.33;12.60;;;11.40;51.50;;;;;;5157407;28;20054;-72
2022/03/23 08:56:15;;;;;;;23.35;12.82;;;11.40;50.80;;;;;;5157741;28;20126;-74
2022/03/23 08:58:49;;;;;;;20.83;12.25;;;11.40;50.70;;;;;;5159324;28;20041;-72
2022/03/23 09:01:21;;;;;;;26.02;12.93;;;11.40;50.70;;;;;;5169206;28;20061;-74
2022/03/23 09:04:00;;;;;;;20.48;11.65;;;11.60;50.60;;;;;;5156377;28;20049;-74
2022/03/23 09:06:32;;;;;;;20.90;12.18;;;11.70;50.20;;;;;;5154468;28;20045;-74
2022/03/23 09:09:05;;;;;;;21.58;13.38;;;12.00;48.90;;;;;;5148053;28;20058;-74
2022/03/23 09:11:37;;;;;;;19.15;12.10;;;12.60;48.00;;;;;;5155550;28;20049;-75
2022/03/23 09:14:13;;;;;;;26.40;11.65;;;12.40;48.10;;;;;;5167885;28;20050;-73
2022/03/23 09:16:46;;;;;;;26.42;12.25;;;12.30;47.90;;;;;;5156380;28;20051;-75
2022/03/23 09:19:20;;;;;;;20.50;11.60;;;12.40;48.60;;;;;;5151058;28;20048;-74
2022/03/23 09:21:53;;;;;;;;;;;12.40;48.30;;;;;;5153843;28;20069;-74
2022/03/23 09:24:30;;;;;;;19.55;12.05;;;12.70;47.30;;;;;;5168188;28;19941;-73
2022/03/23 09:27:03;;;;;;;23.27;12.73;;;12.70;47.60;;;;;;5157853;28;20057;-74
2022/03/23 09:29:36;;;;;;;24.67;13.18;;;12.60;47.30;;;;;;5165079;28;20050;-76
2022/03/23 09:32:10;;;;;;;21.50;12.30;;;12.60;47.30;;;;;;5165501;28;20050;-73
2022/03/23 09:34:42;;;;;;;20.35;12.60;;;12.70;47.50;;;;;;5131069;28;20705;-74
2022/03/23 09:40:07;;;;;;;22.52;13.05;;;12.80;47.00;;;;;;5138170;28;20049;-74
2022/03/23 09:42:42;;;;;;;20.23;11.05;;;12.90;47.10;;;;;;5145035;28;20050;-73
2022/03/23 09:45:24;;;;;;;21.48;12.38;;;13.00;47.00;;;;;;5150954;28;21740;-74
2022/03/23 09:48:01;;;;;;;20.17;12.00;;;13.10;46.60;;;;;;5162974;28;20044;-74
2022/03/23 09:50:34;;;;;;;22.33;13.05;;;13.10;47.20;;;;;;5127429;28;20038;-75
2022/03/23 09:53:07;;;;;;;21.65;12.52;;;13.20;46.60;;;;;;5164779;28;20038;-75
2022/03/23 09:55:42;;;;;;;20.77;13.73;;;13.20;46.00;;;;;;5151863;28;20053;-75
2022/03/23 09:58:14;;;;;;;18.95;13.27;;;13.20;46.80;;;;;;5149648;28;20041;-74
2022/03/23 10:00:48;;;;;;;22.05;13.15;;;13.20;46.60;;;;;;5155343;28;20037;-75
2022/03/23 10:04:20;;;;;;;20.42;12.07;;;13.30;46.40;;;;;;5155588;28;20559;-74
2022/03/23 10:07:23;;;;;;;22.92;14.70;;;13.40;44.60;;;;;;5159011;28;20057;-75
2022/03/23 10:10:31;;;;;;;23.30;13.68;;;13.60;44.60;;;;;;5169569;28;20053;-75
2022/03/23 10:13:48;;;;;;;22.00;12.75;;;13.60;45.10;;;;;;5160362;28;20049;-74
2022/03/23 10:17:04;;;;;;;26.98;14.63;;;13.70;45.10;;;;;;5154922;28;20050;-74
2022/03/23 10:19:43;;;;;;;23.08;14.05;;;13.80;44.50;;;;;;5164329;28;20049;-75
2022/03/23 10:22:16;;;;;;;23.42;13.90;;;13.80;45.50;;;;;;5166155;28;20046;-74
2022/03/23 10:24:49;;;;;;;28.30;15.85;;;14.00;45.60;;;;;;5164515;28;21205;-73
2022/03/23 10:27:24;;;;;;;23.42;14.50;;;14.00;45.40;;;;;;5169959;28;20569;-74
2022/03/23 10:29:56;;;;;;;24.88;14.68;;;14.10;45.50;;;;;;5160305;28;20061;-74
2022/03/23 10:32:36;;;;;;;25.67;15.00;;;14.20;44.70;;;;;;5167672;28;20517;-73
2022/03/23 10:35:12;;;;;;;22.17;15.18;;;14.40;43.90;;;;;;5165822;28;20053;-73
2022/03/23 10:37:44;;;;;;;25.65;16.00;;;14.50;45.00;;;;;;5149905;28;20616;-75
2022/03/23 10:40:18;;;;;;;24.42;14.43;;;14.80;45.20;;;;;;5162782;28;20057;-74
2022/03/23 10:42:51;;;;;;;24.50;15.63;;;14.90;44.70;;;;;;5162378;28;20587;-76
2022/03/23 10:45:23;;;;;;;27.20;14.95;;;14.90;44.60;;;;;;5134801;28;20069;-75
2022/03/23 10:48:07;;;;;;;24.30;14.73;;;14.90;44.50;;;;;;5170533;28;20049;-75
2022/03/23 10:50:55;;;;;;;27.10;14.93;;;15.00;44.30;;;;;;5165564;28;20072;-76
2022/03/23 10:53:35;;;;;;;29.15;17.42;;;15.20;43.80;;;;;;5167586;28;20069;-74
2022/03/23 10:56:08;;;;;;;25.70;16.35;;;15.20;44.30;;;;;;5164805;28;20034;-73
2022/03/23 10:58:47;;;;;;;23.13;14.80;;;15.30;44.60;;;;;;5158639;28;21036;-75
2022/03/23 11:01:21;;;;;;;;;;;15.40;43.70;;;;;;5139385;28;20050;-75
2022/03/23 11:03:53;;;;;;;26.70;14.17;;;15.50;41.60;;;;;;5151259;28;21296;-75
2022/03/23 11:06:27;;;;;;;22.58;14.57;;;15.50;43.40;;;;;;5151103;28;20944;-75
2022/03/23 11:15:46;;;;;;;21.25;15.00;;;15.50;43.00;;;;;;5159720;28;20295;-74
2022/03/23 11:18:12;;;;;;;22.50;15.02;;;15.70;41.90;;;;;;5151143;28;20505;-73
2022/03/23 11:20:56;;;;;;;27.02;15.48;;;15.80;42.20;;;;;;5155667;28;20045;-73
2022/03/23 11:23:33;;;;;;;28.15;16.75;;;16.00;41.90;;;;;;5157390;28;20079;-73
2022/03/23 11:26:10;;;;;;;28.90;16.02;;;16.30;42.20;;;;;;5162331;28;20050;-75
2022/03/23 11:28:45;;;;;;;25.33;15.93;;;16.60;41.60;;;;;;5160313;28;20145;-74
2022/03/23 11:31:18;;;;;;;28.50;15.50;;;16.70;41.80;;;;;;5169975;28;20421;-75
2022/03/23 11:33:53;;;;;;;26.73;17.73;;;16.90;41.60;;;;;;5148651;28;20061;-74
2022/03/23 11:36:28;;;;;;;25.83;15.82;;;17.20;42.20;;;;;;5174384;28;20049;-73
2022/03/23 11:39:04;;;;;;;29.00;16.85;;;17.90;40.50;;;;;;5158369;28;20053;-74
2022/03/23 11:41:38;;;;;;;27.05;16.33;;;18.40;39.10;;;;;;5153285;28;20045;-76
2022/03/23 11:44:18;;;;;;;29.45;16.70;;;19.00;38.40;;;;;;5153302;28;22294;-75
2022/03/23 11:46:53;;;;;;;26.00;16.20;;;19.80;39.40;;;;;;5146257;28;20042;-72
2022/03/23 11:49:51;;;;;;;26.05;16.60;;;20.20;36.30;;;;;;5162998;28;20042;-73
2022/03/23 11:52:41;;;;;;;22.58;16.05;;;20.50;35.20;;;;;;5159484;28;20052;-74
2022/03/23 11:55:37;;;;;;;31.05;16.42;;;20.90;34.60;;;;;;5170531;28;20042;-73
2022/03/23 11:58:16;;;;;;;27.80;16.33;;;21.30;33.70;;;;;;5166410;28;20052;-77
2022/03/23 12:00:54;;;;;;;27.58;15.43;;;21.60;35.60;;;;;;5165014;28;20077;-76
2022/03/23 12:03:50;;;;;;;23.88;15.98;;;22.20;33.30;;;;;;5152052;28;20038;-75
2022/03/23 12:06:41;;;;;;;24.42;15.63;;;22.40;32.00;;;;;;5151996;28;20038;-74
2022/03/23 12:09:35;;;;;;;23.45;14.57;;;22.90;31.70;;;;;;5159201;28;20050;-77
2022/03/23 12:12:12;;;;;;;23.90;14.73;;;23.30;30.90;;;;;;5161114;28;20433;-76
2022/03/23 12:14:47;;;;;;;27.08;15.73;;;23.70;32.10;;;;;;5154753;28;20046;-76
2022/03/23 12:17:28;;;;;;;27.05;15.07;;;23.80;32.60;;;;;;5152604;28;20039;-75
2022/03/23 12:20:05;;;;;;;21.35;14.88;;;23.90;30.60;;;;;;5155847;28;20335;-73
2022/03/23 12:22:42;;;;;;;22.95;15.35;;;24.00;32.00;;;;;;5138048;28;20402;-74
2022/03/23 12:25:26;;;;;;;31.20;15.63;;;24.40;31.20;;;;;;5153133;28;20047;-74
2022/03/23 12:28:20;;;;;;;21.80;14.88;;;24.30;30.00;;;;;;5130803;28;20058;-74
2022/03/23 12:30:53;;;;;;;22.38;13.52;;;24.30;29.30;;;;;;5147730;28;20065;-76
2022/03/23 12:33:29;;;;;;;22.60;13.20;;;24.40;31.00;;;;;;5140039;28;20100;-77
2022/03/23 12:36:04;;;;;;;18.67;14.07;;;24.80;30.40;;;;;;5145682;28;21103;-74
2022/03/23 12:38:36;;;;;;;26.85;15.23;;;24.40;30.10;;;;;;5149753;28;20097;-75
2022/03/23 12:41:09;;;;;;;19.52;13.32;;;24.50;30.00;;;;;;5159414;28;20074;-74
2022/03/23 12:43:46;;;;;;;19.57;14.03;;;24.70;30.40;;;;;;5144386;28;20049;-75
2022/03/23 12:46:26;;;;;;;21.45;14.85;;;25.10;30.00;;;;;;5146067;28;20046;-76
2022/03/23 12:57:50;;;;;;;17.98;13.77;;;24.50;29.80;;;;;;5158685;28;20622;-72
2022/03/23 13:00:27;;;;;;;24.50;14.07;;;24.50;30.00;;;;;;5185748;23;20052;-82
2022/03/23 13:03:07;;;;;;;23.90;13.80;;;25.00;29.60;;;;;;5200228;28;20037;-82
2022/03/23 13:05:55;;;;;;;21.08;15.13;;;25.90;29.50;;;;;;5197978;28;20060;-83
2022/03/23 13:08:30;;;;;;;25.60;14.05;;;26.20;27.80;;;;;;5187036;28;20053;-83
2022/03/23 13:11:06;;;;;;;18.65;13.75;;;26.50;28.90;;;;;;5199848;28;20578;-82
2022/03/23 13:13:39;;;;;;;29.40;16.38;;;26.50;29.10;;;;;;5191818;28;20294;-82
2022/03/23 13:16:17;;;;;;;21.67;16.63;;;26.50;29.20;;;;;;5199004;28;20045;-82
2022/03/23 13:18:54;;;;;;;21.92;16.15;;;26.60;29.50;;;;;;5196793;28;20053;-82
2022/03/23 13:21:33;;;;;;;22.58;17.15;;;26.60;28.70;;;;;;5203642;28;20706;-81
2022/03/23 13:24:08;;;;;;;26.75;16.58;;;26.40;28.90;;;;;;5188871;28;20048;-81
2022/03/23 13:26:44;;;;;;;30.00;16.55;;;26.50;29.10;;;;;;5186560;28;20045;-81
2022/03/23 13:29:16;;;;;;;25.10;18.05;;;26.80;29.20;;;;;;5213422;28;20489;-80
2022/03/23 13:31:49;;;;;;;26.83;17.27;;;27.00;29.00;;;;;;5217779;28;20041;-82
2022/03/23 13:34:21;;;;;;;26.42;16.27;;;26.90;28.90;;;;;;5227693;28;20045;-84
2022/03/23 13:36:54;;;;;;;26.20;17.33;;;27.10;28.70;;;;;;5217916;28;20037;-82
2022/03/23 13:39:26;;;;;;;23.95;17.70;;;27.30;28.80;;;;;;5194103;28;20310;-83
2022/03/23 13:44:55;;;;;;;22.40;16.85;;;27.40;28.50;;;;;;5206197;28;20049;-82
2022/03/23 13:47:37;;;;;;;26.60;16.77;;;27.70;28.50;;;;;;5194388;28;20420;-83
2022/03/23 13:50:12;;;;;;;27.23;16.75;;;28.10;27.80;;;;;;5182009;28;20053;-81